Portada
METAR-TAF:

METAR-TAF

Aeropuertos :

Aeropuerto de Pantelleria

Pantelaria, Italia

latitud: 36-49N, longitud: 011-58E, altitud: 191 m

Observación

El informe se hizo hace 22 minutos, a las 11:50 UTC
Viento 22 kt del este
Temperatura 22°C
Humedad 73%
Presión 1010 hPa
Visibilidad 10 km o más
sin nubes por debajo de 1500 m y sin presencia de cumulonimbus.

METAR: LICG 191150Z 09022KT CAVOK 22/17 Q1010

Hora: 14:12 (12:12 UTC)

Pronóstico

El informe se hizo hace 1 hora y 12 minutos, a las 11:00 UTC
Pronóstico válido del 19 a las 12 UTC al 19 a las 21 UTC
Viento 14 kt del este
Visibilidad 10 km o más
Nubes dispersas a una altura de 2000 ft
Temporalmente
del 19 a las 12 UTC al 19 a las 15 UTC
Visibilidad: 4000 m
chaparrones de lluvia,

TAF: LICG 191100Z 1912/1921 10014KT 9999 SCT020 TEMPO 1912/1915 4000 SHRA

Observaciones y pronósticos meteorológicos de más de 4000 aeropuertos (mensajes METAR y TAF).

Los puntos amarillos y rojos representan las estaciones disponibles.

Ponga el ratón en el punto deseado para ver el nombre de la estación.

Haga clic para ver las observaciones y los pronósticos meteorológicos.

Para cambiar el mapa : haga clic en los botones verdes con una cruz de color negro para hacer un zoom, en el botón verde con un guión para alejar o en las flechas verdes para mapas adyacentes.


METAR-TAF: